Time;durP1;ratioP1;P1;durP2;ratioP2;P2;SDS_P1;SDS_P2;PMS_P1;PMS_P2;Temp;Humidity;BMP_temperature;BMP_pressure;BME280_temperature;BME280_humidity;BME280_pressure;Samples;Min_cycle;Max_cycle;Signal;HPM_P1;HPM_P2
2021/10/02 00:47:15;;;;;;;6.20;2.63;;;13.30;99.90;;;11.94;100.00;100926.28;2569104;30;137083;-39
2021/10/02 00:49:43;;;;;;;6.10;2.88;;;13.30;99.90;;;11.94;100.00;100924.41;2566654;30;139381;-40
2021/10/02 00:52:16;;;;;;;3.75;2.35;;;13.40;99.90;;;11.97;100.00;100933.22;2568828;30;136850;-40
2021/10/02 00:54:45;;;;;;;4.07;2.70;;;13.40;99.90;;;11.98;100.00;100932.19;2569406;30;137470;-39
2021/10/02 00:57:15;;;;;;;3.95;2.38;;;13.40;99.90;;;11.98;100.00;100927.53;2569489;30;137754;-40
2021/10/02 00:59:45;;;;;;;5.28;3.05;;;13.40;99.90;;;12.01;100.00;100927.13;2568080;30;138618;-39
2021/10/02 01:02:56;;;;;;;6.53;3.08;;;13.40;99.90;;;12.00;100.00;100925.41;2568625;30;138651;-39
2021/10/02 01:05:50;;;;;;;8.10;3.85;;;13.40;99.90;;;11.99;100.00;100920.19;2570002;30;137340;-39
2021/10/02 01:08:55;;;;;;;8.73;4.38;;;13.40;99.90;;;12.03;100.00;100913.25;2568743;30;137418;-40
2021/10/02 01:12:08;;;;;;;5.60;3.72;;;13.40;99.90;;;12.04;100.00;100909.44;2568256;30;139014;-39
2021/10/02 01:14:48;;;;;;;6.30;3.80;;;13.40;99.90;;;12.08;100.00;100902.47;2570277;30;136871;-40
2021/10/02 01:17:36;;;;;;;5.63;3.63;;;13.40;99.90;;;12.12;100.00;100908.34;2567949;30;138421;-39
2021/10/02 01:20:27;;;;;;;5.25;3.40;;;13.40;99.90;;;12.09;100.00;100893.22;2568663;30;137075;-40
2021/10/02 01:23:26;;;;;;;5.25;3.00;;;13.50;99.90;;;12.06;100.00;100889.00;2570840;30;138876;-40
2021/10/02 01:25:56;;;;;;;5.65;2.80;;;13.50;99.90;;;12.09;100.00;100895.94;2567548;30;137530;-39
2021/10/02 01:28:25;;;;;;;6.72;2.85;;;13.50;99.90;;;12.10;100.00;100891.31;2568920;30;138464;-40
2021/10/02 01:34:14;;;;;;;4.80;2.88;;;13.50;99.90;;;12.11;100.00;100885.63;2565959;30;137929;-39
2021/10/02 01:48:15;;;;;;;3.13;1.42;;;13.50;99.90;;;12.08;100.00;100886.91;2569268;30;137003;-41
2021/10/02 01:50:49;;;;;;;2.65;1.40;;;13.40;99.90;;;12.10;100.00;100889.41;2568151;30;138834;-38
2021/10/02 01:53:17;;;;;;;4.97;1.60;;;13.50;99.90;;;12.07;100.00;100887.97;2569302;30;136672;-39
2021/10/02 01:55:49;;;;;;;1.38;1.00;;;13.50;99.90;;;12.12;100.00;100892.75;2568703;30;136821;-41
2021/10/02 01:58:21;;;;;;;1.90;1.10;;;13.50;99.90;;;12.15;100.00;100883.28;2568136;30;137631;-38
2021/10/02 02:00:49;;;;;;;2.45;1.00;;;13.50;99.90;;;12.16;100.00;100884.97;2567722;30;137412;-39
2021/10/02 02:03:23;;;;;;;1.50;0.80;;;13.50;99.90;;;12.14;100.00;100884.34;2567044;30;137405;-38
2021/10/02 02:05:53;;;;;;;2.15;0.82;;;13.50;99.90;;;12.14;100.00;100876.97;2567050;30;139017;-38
2021/10/02 02:08:26;;;;;;;3.15;0.90;;;13.50;99.90;;;12.19;100.00;100876.31;2565420;30;136876;-38
2021/10/02 02:10:56;;;;;;;1.52;0.82;;;13.50;99.90;;;12.18;100.00;100875.47;2570378;30;138160;-38
2021/10/02 02:13:26;;;;;;;1.85;0.77;;;13.50;99.90;;;12.19;100.00;100871.66;2569218;30;137540;-41
2021/10/02 02:15:59;;;;;;;0.95;0.50;;;13.50;99.90;;;12.20;100.00;100878.00;2568312;30;139246;-39
2021/10/02 02:18:29;;;;;;;1.15;0.68;;;13.60;99.90;;;12.22;100.00;100870.41;2568393;30;137428;-38
2021/10/02 02:21:04;;;;;;;2.35;1.00;;;13.60;99.90;;;12.14;100.00;100874.22;2568956;30;138555;-41
2021/10/02 02:23:33;;;;;;;0.85;0.52;;;13.50;99.90;;;12.10;100.00;100875.75;2567185;30;137017;-41
2021/10/02 02:26:04;;;;;;;1.27;0.73;;;13.50;99.90;;;12.08;100.00;100870.50;2565613;30;138488;-38
2021/10/02 02:28:37;;;;;;;1.02;0.60;;;13.50;99.90;;;12.07;100.00;100870.72;2566999;30;136865;-38
2021/10/02 02:31:06;;;;;;;1.52;0.80;;;13.50;99.90;;;12.10;100.00;100872.19;2568137;30;136813;-44
2021/10/02 02:33:37;;;;;;;1.40;0.70;;;13.50;99.90;;;12.08;100.00;100869.66;2567890;30;137552;-38
2021/10/02 02:36:06;;;;;;;2.75;0.68;;;13.40;99.90;;;12.06;100.00;100863.56;2567985;30;138222;-42
2021/10/02 02:38:35;;;;;;;1.55;0.77;;;13.40;99.90;;;12.07;100.00;100866.09;2566685;30;136660;-41
2021/10/02 02:41:04;;;;;;;2.13;0.57;;;13.40;99.90;;;12.07;100.00;100854.31;2568028;30;138317;-38
2021/10/02 02:43:38;;;;;;;0.88;0.63;;;13.40;99.90;;;12.06;100.00;100855.38;2569201;30;137706;-38
2021/10/02 02:46:30;;;;;;;1.50;0.82;;;13.40;99.90;;;12.06;100.00;100855.38;2568185;30;138229;-39
2021/10/02 02:49:22;;;;;;;1.20;0.70;;;13.40;99.90;;;12.05;100.00;100861.91;2566358;30;137453;-38
2021/10/02 02:52:02;;;;;;;2.50;0.65;;;13.40;99.90;;;12.04;100.00;100862.97;2567926;30;137473;-42
2021/10/02 02:54:40;;;;;;;2.13;0.70;;;13.40;99.90;;;12.04;100.00;100868.44;2567106;30;136986;-38
2021/10/02 02:57:19;;;;;;;1.55;0.77;;;13.40;99.90;;;12.04;100.00;100869.25;2567079;30;138250;-38
2021/10/02 02:59:57;;;;;;;1.30;0.70;;;13.40;99.90;;;12.06;100.00;100863.56;2569594;30;137486;-38
2021/10/02 03:02:26;;;;;;;1.10;0.70;;;13.40;99.90;;;12.04;100.00;100866.50;2567715;30;138584;-38
2021/10/02 03:04:56;;;;;;;0.80;0.60;;;13.40;99.90;;;12.08;100.00;100869.66;2568215;30;137643;-38
2021/10/02 03:07:26;;;;;;;1.85;0.88;;;13.40;99.90;;;12.05;100.00;100870.94;2565263;30;138463;-38
2021/10/02 03:09:56;;;;;;;1.35;0.70;;;13.40;99.90;;;12.05;100.00;100868.19;2568649;30;136730;-41
2021/10/02 03:12:37;;;;;;;1.38;0.60;;;13.40;99.90;;;12.01;100.00;100850.56;2564880;30;139217;-39
2021/10/02 03:15:05;;;;;;;1.35;0.73;;;13.40;99.90;;;12.03;100.00;100848.44;2566886;30;137645;-38
2021/10/02 03:17:36;;;;;;;2.40;0.70;;;13.50;99.90;;;12.07;100.00;100849.69;2567387;30;138310;-39
2021/10/02 03:20:06;;;;;;;1.35;0.40;;;13.40;99.90;;;12.03;100.00;100845.69;2568436;30;136994;-41
2021/10/02 03:22:36;;;;;;;2.00;0.80;;;13.40;99.90;;;12.06;100.00;100849.91;2568141;30;137459;-41
2021/10/02 03:25:05;;;;;;;1.98;0.93;;;13.40;99.90;;;12.03;100.00;100859.38;2565917;30;138516;-41
2021/10/02 03:27:34;;;;;;;2.35;0.80;;;13.40;99.90;;;12.03;100.00;100851.16;2568178;30;138487;-38
2021/10/02 03:30:02;;;;;;;5.28;0.90;;;13.40;99.90;;;12.01;100.00;100847.81;2565365;30;137842;-38
2021/10/02 03:32:30;;;;;;;1.50;1.00;;;13.40;99.90;;;12.01;100.00;100841.53;2564672;30;137755;-39
2021/10/02 03:34:58;;;;;;;3.05;1.10;;;13.40;99.90;;;12.02;100.00;100840.47;2567706;30;136695;-41
2021/10/02 03:37:28;;;;;;;3.40;1.27;;;13.40;99.90;;;12.01;100.00;100847.00;2567436;30;137469;-40
2021/10/02 03:39:56;;;;;;;3.85;1.60;;;13.40;99.90;;;12.00;100.00;100846.13;2567962;30;138507;-40
2021/10/02 03:42:24;;;;;;;2.95;1.75;;;13.40;99.90;;;12.00;100.00;100835.19;2567456;30;138499;-40
2021/10/02 03:44:53;;;;;;;5.72;2.78;;;13.40;99.90;;;12.02;100.00;100835.81;2567351;30;137492;-40
2021/10/02 03:47:22;;;;;;;7.20;3.30;;;13.40;99.90;;;12.07;100.00;100821.50;2566254;30;137576;-40
2021/10/02 03:49:50;;;;;;;4.53;2.85;;;13.40;99.90;;;12.03;100.00;100828.47;2567667;30;137410;-40
2021/10/02 03:52:20;;;;;;;4.88;3.17;;;13.40;99.90;;;12.04;100.00;100827.41;2567125;30;138529;-40
2021/10/02 03:54:47;;;;;;;5.70;3.03;;;13.40;99.90;;;12.01;100.00;100820.47;2568155;30;137068;-41
2021/10/02 03:57:15;;;;;;;4.03;2.45;;;13.40;99.90;;;12.01;100.00;100825.13;2567350;30;137997;-41
2021/10/02 03:59:42;;;;;;;3.30;2.08;;;13.40;99.90;;;11.99;100.00;100825.31;2566865;30;138067;-38
2021/10/02 04:02:10;;;;;;;2.50;1.75;;;13.40;99.90;;;12.00;100.00;100826.16;2568296;30;138221;-40
2021/10/02 04:04:37;;;;;;;3.30;1.30;;;13.40;99.90;;;12.02;100.00;100829.53;2566396;30;137707;-40
2021/10/02 04:07:05;;;;;;;3.63;1.30;;;13.40;99.90;;;12.00;100.00;100826.16;2568089;30;137505;-40
2021/10/02 04:09:33;;;;;;;2.45;1.20;;;13.40;99.90;;;12.00;100.00;100829.72;2567754;30;136762;-40
2021/10/02 04:12:00;;;;;;;2.25;1.00;;;13.40;99.90;;;12.01;100.00;100833.34;2567218;30;137534;-38
2021/10/02 04:14:27;;;;;;;1.88;1.00;;;13.40;99.90;;;12.06;100.00;100830.75;2568075;30;137494;-40
2021/10/02 04:16:57;;;;;;;1.92;1.00;;;13.40;99.90;;;12.05;100.00;100837.28;2568197;30;138423;-40
2021/10/02 04:19:25;;;;;;;2.95;1.10;;;13.40;99.90;;;12.02;100.00;100829.53;2568138;30;137461;-41
2021/10/02 04:21:53;;;;;;;1.92;1.10;;;13.40;99.90;;;12.08;100.00;100842.31;2567543;30;138254;-41
2021/10/02 04:24:22;;;;;;;2.90;1.20;;;13.40;99.90;;;12.06;100.00;100833.50;2566456;30;138253;-41
2021/10/02 04:26:50;;;;;;;3.15;1.40;;;13.40;99.90;;;12.05;100.00;100840.03;2567490;30;137233;-41
2021/10/02 04:29:18;;;;;;;;;;;13.40;99.90;;;12.08;100.00;100842.31;2567050;30;136836;-42
2021/10/02 04:31:45;;;;;;;2.60;1.40;;;13.40;99.90;;;12.07;100.00;100832.44;2568188;30;137868;-40
2021/10/02 04:34:13;;;;;;;3.28;1.52;;;13.40;99.90;;;12.07;100.00;100837.91;2565753;30;138057;-40
2021/10/02 04:36:40;;;;;;;3.55;1.40;;;13.50;99.90;;;12.07;100.00;100835.16;2568455;30;137335;-41
2021/10/02 04:39:08;;;;;;;3.05;1.60;;;13.40;99.90;;;12.02;100.00;100835.81;2567503;30;138731;-40
2021/10/02 04:41:35;;;;;;;;;;;13.50;99.90;;;12.10;100.00;100834.72;2568211;30;137367;-40
2021/10/02 04:44:03;;;;;;;2.72;1.83;;;13.50;99.90;;;12.06;100.00;100830.75;2568606;30;137087;-40
2021/10/02 04:46:31;;;;;;;5.07;2.28;;;13.40;99.90;;;12.04;100.00;100830.16;2566396;38;137210;-40
2021/10/02 04:48:59;;;;;;;5.05;2.30;;;13.40;99.90;;;12.06;100.00;100838.97;2566151;30;137361;-40
2021/10/02 04:51:27;;;;;;;5.63;2.78;;;13.40;99.90;;;12.02;100.00;100838.56;2568166;30;138026;-40
2021/10/02 04:53:54;;;;;;;4.55;2.35;;;13.40;99.90;;;12.02;100.00;100841.28;2567616;30;136796;-41
2021/10/02 04:56:21;;;;;;;4.60;3.03;;;13.40;99.90;;;12.06;100.00;100837.06;2568187;30;137701;-40
2021/10/02 04:58:50;;;;;;;5.05;2.78;;;13.40;99.90;;;12.04;100.00;100835.63;2564149;30;137415;-40
2021/10/02 05:01:17;;;;;;;4.55;2.95;;;13.40;99.90;;;12.10;100.00;100836.63;2565746;30;139019;-40
2021/10/02 05:03:45;;;;;;;4.28;2.55;;;13.40;99.90;;;12.03;100.00;100840.22;2567220;30;137265;-40
2021/10/02 05:06:13;;;;;;;6.00;2.78;;;13.40;99.90;;;11.99;100.00;100828.03;2567986;30;138975;-40
2021/10/02 05:08:41;;;;;;;3.25;1.83;;;13.40;99.90;;;12.00;100.00;100834.34;2564854;30;137719;-40
2021/10/02 05:11:09;;;;;;;3.55;1.77;;;13.40;99.90;;;11.98;100.00;100833.75;2564949;30;137423;-40
2021/10/02 05:13:37;;;;;;;3.63;1.65;;;13.40;99.90;;;11.94;100.00;100822.41;2566999;30;138178;-40
2021/10/02 05:16:04;;;;;;;3.25;1.50;;;13.40;99.90;;;11.92;100.00;100817.16;2567721;30;137545;-43
2021/10/02 05:18:32;;;;;;;3.13;1.48;;;13.30;99.90;;;11.90;100.00;100824.72;2568035;30;136827;-40
2021/10/02 05:20:59;;;;;;;3.85;1.50;;;13.30;99.90;;;11.90;100.00;100829.38;2567046;30;138517;-40
2021/10/02 05:23:27;;;;;;;3.72;1.83;;;13.30;99.90;;;11.88;100.00;100826.84;2566182;30;136950;-40
2021/10/02 05:25:55;;;;;;;3.10;1.60;;;13.30;99.90;;;11.87;100.00;100819.72;2567926;30;137966;-41
2021/10/02 05:28:24;;;;;;;5.00;1.83;;;13.30;99.90;;;11.85;100.00;100810.91;2567933;30;138713;-42
2021/10/02 05:30:52;;;;;;;4.38;1.73;;;13.20;99.90;;;11.85;100.00;100807.34;2567126;30;138375;-40
2021/10/02 05:33:20;;;;;;;2.53;1.40;;;13.20;99.90;;;11.82;100.00;100805.88;2568654;30;138247;-40
2021/10/02 05:35:48;;;;;;;3.90;1.60;;;13.20;99.90;;;11.76;100.00;100807.59;2568109;30;138486;-40
2021/10/02 05:38:20;;;;;;;2.08;1.10;;;13.20;99.90;;;11.71;100.00;100814.78;2565566;30;137785;-40
2021/10/02 05:40:49;;;;;;;3.40;1.40;;;13.10;99.90;;;11.66;100.00;100824.47;2568003;30;139148;-40
2021/10/02 05:43:17;;;;;;;3.17;1.30;;;13.10;99.90;;;11.61;100.00;100828.94;2568267;30;137028;-40
2021/10/02 05:45:45;;;;;;;;;;;13.00;99.90;;;11.55;100.00;100819.72;2567201;30;137182;-41
2021/10/02 05:48:12;;;;;;;3.13;1.30;;;13.00;99.90;;;11.49;100.00;100834.25;2566990;30;137248;-40
2021/10/02 05:50:40;;;;;;;2.42;1.27;;;12.90;99.90;;;11.44;100.00;100825.88;2567680;30;138287;-40
2021/10/02 05:53:07;;;;;;;2.90;1.20;;;12.90;99.90;;;11.37;100.00;100832.19;2565804;30;136911;-40
2021/10/02 05:55:35;;;;;;;3.67;1.30;;;12.80;99.90;;;11.33;100.00;100825.50;2568299;30;137362;-40
2021/10/02 05:58:03;;;;;;;2.13;1.10;;;12.80;99.90;;;11.31;100.00;100832.25;2567743;30;136830;-40
2021/10/02 06:00:30;;;;;;;;;;;12.70;99.90;;;11.30;100.00;100847.78;2567292;30;138583;-41
2021/10/02 06:03:00;;;;;;;2.22;1.20;;;12.70;99.90;;;11.33;100.00;100843.78;2566654;30;137874;-40
2021/10/02 06:05:28;;;;;;;1.63;0.93;;;12.70;99.90;;;11.31;100.00;100830.34;2566482;30;137980;-40
2021/10/02 06:07:57;;;;;;;3.15;0.98;;;12.80;99.90;;;11.43;100.00;100841.41;2565832;30;138266;-38
2021/10/02 06:10:25;;;;;;;2.67;1.10;;;12.80;99.90;;;11.47;100.00;100847.31;2567282;30;139195;-40
2021/10/02 06:12:54;;;;;;;2.25;1.10;;;12.80;99.90;;;11.44;100.00;100843.09;2565849;30;138123;-40
2021/10/02 06:15:24;;;;;;;2.28;1.08;;;12.80;99.90;;;11.43;100.00;100835.97;2568008;30;138540;-40
2021/10/02 06:17:55;;;;;;;3.17;1.23;;;12.80;99.90;;;11.43;100.00;100840.59;2567413;30;136789;-40
2021/10/02 06:20:24;;;;;;;4.28;1.55;;;12.80;99.90;;;11.42;100.00;100842.47;2566799;30;138289;-40
2021/10/02 06:22:52;;;;;;;2.72;1.50;;;12.80;99.90;;;11.43;100.00;100840.59;2566228;30;137457;-40
2021/10/02 06:25:20;;;;;;;2.60;1.40;;;12.80;99.90;;;11.47;100.00;100855.50;2566786;30;137437;-40
2021/10/02 06:27:48;;;;;;;;;;;12.80;99.90;;;11.52;100.00;100848.28;2566884;30;137284;-40
2021/10/02 06:30:15;;;;;;;2.33;1.42;;;12.90;99.90;;;11.58;100.00;100845.78;2568667;30;136874;-40
2021/10/02 06:32:43;;;;;;;3.30;1.65;;;13.00;99.90;;;11.62;100.00;100845.09;2567288;30;137915;-40
2021/10/02 06:35:10;;;;;;;3.05;1.50;;;13.00;99.90;;;11.68;100.00;100848.03;2567870;30;138907;-40
2021/10/02 06:37:38;;;;;;;;;;;13.00;99.90;;;11.73;100.00;100843.56;2568276;30;137287;-41
2021/10/02 06:40:07;;;;;;;2.83;1.48;;;13.10;99.90;;;11.80;100.00;100838.91;2567436;30;137375;-40
2021/10/02 06:42:35;;;;;;;3.97;1.70;;;13.10;99.90;;;11.88;100.00;100847.91;2568096;30;137288;-40
2021/10/02 06:45:06;;;;;;;2.50;1.35;;;13.20;99.90;;;11.95;100.00;100845.94;2568310;30;136771;-41
2021/10/02 06:47:34;;;;;;;3.72;1.40;;;13.30;99.90;;;12.03;100.00;100844.88;2567928;30;137692;-40
2021/10/02 06:50:02;;;;;;;3.95;1.60;;;13.30;99.90;;;12.09;100.00;100833.03;2565699;30;138492;-40
2021/10/02 06:52:30;;;;;;;3.88;1.50;;;13.40;99.90;;;12.20;100.00;100843.28;2568361;30;138388;-40
2021/10/02 06:54:59;;;;;;;3.20;1.70;;;13.50;99.90;;;12.34;100.00;100840.41;2568212;30;138432;-40
2021/10/02 06:57:27;;;;;;;2.53;1.30;;;13.60;99.90;;;12.47;100.00;100854.00;2568623;30;138283;-40
2021/10/02 06:59:54;;;;;;;3.67;1.60;;;13.70;99.90;;;12.56;100.00;100857.25;2567719;30;138178;-40
2021/10/02 07:02:22;;;;;;;3.30;1.58;;;13.70;99.90;;;12.62;100.00;100844.56;2567783;30;138661;-41
2021/10/02 07:04:51;;;;;;;2.78;1.45;;;13.80;99.90;;;12.62;100.00;100847.31;2566400;30;138162;-40
2021/10/02 07:07:19;;;;;;;2.28;1.40;;;13.90;99.90;;;12.64;100.00;100846.03;2568611;30;137721;-40
2021/10/02 07:09:47;;;;;;;3.22;1.58;;;13.90;99.90;;;12.64;100.00;100847.94;2568821;30;139174;-41
2021/10/02 07:12:14;;;;;;;2.53;1.30;;;14.00;99.90;;;12.67;100.00;100836.53;2566745;30;137882;-40
2021/10/02 07:14:42;;;;;;;2.75;1.40;;;14.00;99.90;;;12.76;100.00;100837.91;2567576;30;137299;-40
2021/10/02 07:17:10;;;;;;;2.53;1.40;;;14.00;99.90;;;12.86;100.00;100847.50;2568700;30;137438;-40
2021/10/02 07:19:38;;;;;;;2.10;1.15;;;14.10;99.90;;;12.93;100.00;100848.25;2566566;30;138538;-40
2021/10/02 07:22:06;;;;;;;3.00;1.38;;;14.10;99.90;;;13.01;100.00;100849.84;2567796;30;138140;-41
2021/10/02 07:24:34;;;;;;;2.15;1.45;;;14.20;99.90;;;13.06;100.00;100852.75;2567204;30;139161;-40
2021/10/02 07:27:02;;;;;;;2.47;1.40;;;14.30;99.90;;;13.12;100.00;100854.56;2567619;30;137364;-38
2021/10/02 07:29:30;;;;;;;2.35;1.10;;;14.30;99.90;;;13.14;100.00;100854.34;2566871;30;138348;-40
2021/10/02 07:31:57;;;;;;;6.13;1.80;;;14.30;99.90;;;13.18;100.00;100850.94;2568050;30;137599;-40
2021/10/02 07:34:25;;;;;;;1.83;0.90;;;14.40;99.90;;;13.22;100.00;100846.66;2568011;30;139049;-41
2021/10/02 07:36:53;;;;;;;4.10;1.50;;;14.40;99.90;;;13.25;100.00;100848.09;2567476;30;136962;-40
2021/10/02 07:39:21;;;;;;;3.58;1.30;;;14.50;99.90;;;13.24;100.00;100847.25;2567579;30;137391;-40
2021/10/02 07:41:49;;;;;;;3.38;1.50;;;14.50;99.90;;;13.20;99.76;100834.25;2580423;30;137381;-39
2021/10/02 07:44:27;;;;;;;4.00;1.33;;;14.40;99.90;;;13.27;99.39;100821.31;2566196;30;136800;-38
2021/10/02 07:46:57;;;;;;;2.85;1.15;;;14.50;99.90;;;13.33;98.47;100819.53;2567012;30;138360;-39
2021/10/02 07:49:27;;;;;;;3.00;1.00;;;14.50;99.90;;;13.35;98.50;100818.25;2569774;30;139063;-39
2021/10/02 07:51:56;;;;;;;3.30;1.15;;;14.60;99.90;;;13.39;98.62;100813.13;2568028;30;137414;-39
2021/10/02 07:54:26;;;;;;;2.25;1.13;;;14.60;99.90;;;13.47;98.86;100817.50;2567880;30;138140;-39
2021/10/02 07:56:57;;;;;;;1.92;1.20;;;14.60;99.90;;;13.53;99.04;100811.09;2569278;30;136722;-39
2021/10/02 07:59:28;;;;;;;2.17;1.10;;;14.70;99.90;;;13.69;97.30;100806.00;2568235;30;138496;-39
2021/10/02 08:01:57;;;;;;;3.65;1.20;;;14.80;99.90;;;13.79;97.62;100811.75;2570287;30;137646;-39
2021/10/02 08:04:25;;;;;;;3.80;1.23;;;14.90;99.90;;;13.83;97.21;100812.13;2566181;30;139404;-39
2021/10/02 08:06:53;;;;;;;;;;;15.00;99.90;;;13.91;97.24;100809.88;2569204;30;138072;-39
2021/10/02 08:09:22;;;;;;;2.28;1.13;;;15.00;99.90;;;14.02;95.80;100805.50;2567252;30;137929;-39
2021/10/02 08:11:49;;;;;;;3.33;1.50;;;15.10;99.90;;;14.13;95.51;100795.63;2568902;30;137681;-39
2021/10/02 08:14:17;;;;;;;2.63;1.38;;;15.30;99.90;;;14.23;93.60;100784.88;2569091;30;137417;-39
2021/10/02 08:16:47;;;;;;;3.15;1.10;;;15.30;99.90;;;14.30;93.69;100789.41;2569560;30;136596;-39
2021/10/02 08:19:20;;;;;;;3.15;1.15;;;15.40;99.90;;;14.31;93.58;100793.81;2569705;30;137424;-39
2021/10/02 08:21:49;;;;;;;3.13;1.10;;;15.40;99.90;;;14.42;93.24;100786.66;2569552;30;136994;-39
2021/10/02 08:24:19;;;;;;;3.10;1.17;;;15.50;99.90;;;14.52;92.98;100775.94;2568621;30;138325;-38
2021/10/02 08:26:52;;;;;;;1.65;1.02;;;15.60;99.90;;;14.53;91.62;100772.94;2568874;30;138292;-39
2021/10/02 08:29:22;;;;;;;3.60;1.00;;;15.70;99.90;;;14.56;90.75;100776.25;2570170;30;137088;-39
2021/10/02 08:31:52;;;;;;;1.20;0.80;;;15.70;99.90;;;14.61;89.54;100776.41;2567947;30;137005;-39
2021/10/02 08:34:25;;;;;;;2.58;1.10;;;15.70;99.90;;;14.62;88.94;100775.31;2569861;30;138435;-39
2021/10/02 08:36:53;;;;;;;3.60;1.10;;;15.70;99.90;;;14.62;88.26;100773.41;2569992;30;137019;-39
2021/10/02 08:39:21;;;;;;;2.03;1.10;;;15.70;99.90;;;14.56;89.16;100770.78;2568381;30;137490;-39
2021/10/02 08:41:51;;;;;;;5.63;1.13;;;15.70;99.90;;;14.50;88.18;100767.91;2569507;30;136949;-40
2021/10/02 08:44:23;;;;;;;1.60;0.93;;;15.60;99.90;;;14.52;88.41;100765.78;2568996;30;138166;-38
2021/10/02 08:46:53;;;;;;;1.73;1.00;;;15.70;99.90;;;14.54;88.99;100762.78;2571178;30;136849;-41
2021/10/02 08:49:41;;;;;;;4.32;1.30;;;15.70;99.90;;;14.59;88.82;100762.91;2569788;30;139291;-39
2021/10/02 08:52:10;;;;;;;2.65;1.30;;;15.70;99.90;;;14.64;89.21;100767.69;2569169;30;138032;-39
2021/10/02 08:54:43;;;;;;;3.53;1.50;;;15.80;99.90;;;14.70;88.63;100765.84;2565817;30;137478;-39
2021/10/02 08:57:23;;;;;;;1.98;1.20;;;15.80;99.90;;;14.67;88.44;100762.53;2568746;30;137013;-39
2021/10/02 08:59:54;;;;;;;3.22;1.38;;;15.80;99.90;;;14.79;88.68;100751.53;2568014;30;139023;-39
2021/10/02 09:02:25;;;;;;;3.00;1.58;;;15.90;99.90;;;14.88;87.21;100746.50;2567662;30;137901;-39
2021/10/02 09:04:54;;;;;;;3.28;1.10;;;16.00;99.90;;;14.98;86.40;100751.38;2566800;30;136936;-39
2021/10/02 09:07:23;;;;;;;2.50;1.20;;;16.00;99.90;;;15.00;85.62;100749.22;2567004;30;138492;-39
2021/10/02 09:09:54;;;;;;;2.53;1.10;;;16.10;99.90;;;14.99;85.48;100744.00;2569145;30;139115;-39
2021/10/02 09:12:23;;;;;;;2.75;1.10;;;16.10;99.90;;;14.91;85.54;100739.72;2565830;30;136856;-39
2021/10/02 09:14:53;;;;;;;1.90;1.00;;;16.00;99.90;;;14.80;86.00;100733.16;2567950;30;138365;-39
2021/10/02 09:17:22;;;;;;;4.80;2.15;;;16.00;99.90;;;14.74;85.85;100724.00;2569207;30;137951;-39
2021/10/02 09:19:49;;;;;;;2.78;1.50;;;16.00;99.90;;;14.86;86.21;100715.72;2567690;30;138486;-39
2021/10/02 09:22:21;;;;;;;3.83;1.27;;;16.00;99.90;;;15.00;85.29;100709.94;2570552;30;137653;-39
2021/10/02 09:24:51;;;;;;;2.28;1.20;;;16.10;99.90;;;15.07;84.97;100707.88;2568896;30;138275;-39
2021/10/02 09:27:25;;;;;;;1.92;1.00;;;16.20;99.90;;;15.18;86.79;100700.66;2569353;30;138954;-39
2021/10/02 09:30:02;;;;;;;1.40;0.90;;;16.30;99.90;;;15.39;84.96;100699.97;2569590;30;137340;-39
2021/10/02 09:32:37;;;;;;;1.63;1.00;;;16.40;99.90;;;15.45;82.37;100689.88;2567622;30;137213;-39
2021/10/02 09:35:21;;;;;;;1.13;0.75;;;16.50;99.90;;;15.61;83.83;100695.63;2569312;30;138557;-39
2021/10/02 09:37:54;;;;;;;1.55;0.90;;;16.60;99.90;;;15.57;82.37;100692.53;2569740;30;137570;-39
2021/10/02 09:40:25;;;;;;;1.63;0.90;;;16.70;99.90;;;15.45;83.04;100689.88;2567521;30;138638;-39
2021/10/02 09:42:59;;;;;;;1.70;0.80;;;16.60;99.90;;;15.49;83.81;100698.47;2566570;30;138252;-39
2021/10/02 09:45:36;;;;;;;1.20;0.80;;;16.60;99.90;;;15.59;84.27;100693.13;2568520;30;138302;-39
2021/10/02 09:48:08;;;;;;;3.33;1.02;;;16.70;99.90;;;15.63;82.85;100686.03;2568994;30;137427;-41
2021/10/02 09:50:47;;;;;;;3.03;1.08;;;16.70;99.90;;;15.79;83.94;100684.38;2568044;30;139841;-39
2021/10/02 09:53:18;;;;;;;1.98;1.10;;;16.80;99.90;;;15.87;83.01;100699.63;2569253;30;137433;-41
2021/10/02 09:55:50;;;;;;;1.77;1.13;;;16.90;99.90;;;16.01;82.27;100696.56;2567552;30;139376;-39
2021/10/02 09:58:39;;;;;;;2.60;1.30;;;17.00;99.90;;;15.96;81.70;100694.56;2569360;30;138265;-40
2021/10/02 10:01:23;;;;;;;2.08;1.25;;;17.00;99.90;;;15.88;81.87;100695.81;2568965;30;137218;-39
2021/10/02 10:03:52;;;;;;;2.08;1.20;;;17.00;99.90;;;15.85;81.85;100695.47;2567309;30;137946;-40
2021/10/02 10:06:22;;;;;;;1.90;1.05;;;17.00;99.90;;;15.89;81.85;100691.97;2571181;30;138371;-39
2021/10/02 10:09:14;;;;;;;1.80;1.05;;;17.00;99.90;;;15.98;82.04;100686.06;2569103;30;136991;-39
2021/10/02 10:11:48;;;;;;;2.78;1.30;;;17.00;99.90;;;15.98;82.49;100680.56;2570066;30;139692;-39
2021/10/02 10:14:27;;;;;;;3.00;1.20;;;17.00;99.90;;;15.80;82.51;100679.72;2567437;30;137633;-39
2021/10/02 19:43:20;;;;;;;3.45;1.88;;;16.70;99.90;;;14.24;96.42;99658.97;2551176;30;136989;-39
2021/10/02 19:45:48;;;;;;;5.93;2.30;;;15.60;99.90;;;14.21;97.38;99656.75;2569091;30;136800;-40
2021/10/02 19:48:17;;;;;;;3.75;1.90;;;15.60;99.90;;;14.20;97.05;99648.81;2567547;30;138493;-39
2021/10/02 19:50:46;;;;;;;6.78;2.13;;;15.60;99.90;;;14.21;96.98;99648.53;2569342;30;136673;-40
2021/10/02 19:53:18;;;;;;;2.70;1.70;;;15.50;99.90;;;14.23;96.82;99643.59;2569554;30;138390;-39
2021/10/02 19:55:46;;;;;;;4.20;1.80;;;15.60;99.90;;;14.22;97.48;99632.91;2568780;30;137535;-40
2021/10/02 19:58:15;;;;;;;5.38;1.90;;;15.60;99.90;;;14.23;97.33;99627.16;2569901;30;137917;-39
2021/10/02 20:00:43;;;;;;;4.20;2.10;;;15.60;99.90;;;14.27;97.54;99630.19;2570499;30;136925;-40
2021/10/02 20:03:11;;;;;;;3.42;1.83;;;15.60;99.90;;;14.24;96.75;99612.34;2570810;30;138239;-39
2021/10/02 20:05:38;;;;;;;3.35;1.90;;;15.60;99.90;;;14.20;97.34;99618.66;2567810;30;137469;-40
2021/10/02 20:08:06;;;;;;;4.55;2.00;;;15.50;99.90;;;14.17;97.79;99606.28;2568404;30;137647;-40
2021/10/02 20:10:34;;;;;;;5.80;2.03;;;15.50;99.90;;;14.19;97.50;99603.25;2568018;30;136758;-40
2021/10/02 20:13:01;;;;;;;3.78;1.92;;;15.50;99.90;;;14.22;97.14;99606.28;2568746;30;138482;-39
2021/10/02 20:15:29;;;;;;;3.80;2.10;;;15.50;99.90;;;14.21;97.31;99584.63;2568872;30;137446;-40
2021/10/02 20:17:56;;;;;;;4.28;2.13;;;15.50;99.90;;;14.29;96.49;99592.34;2570283;30;138047;-39
2021/10/02 20:20:26;;;;;;;4.45;2.00;;;15.60;99.90;;;14.30;96.80;99590.41;2568879;30;137374;-40
2021/10/02 20:22:53;;;;;;;4.82;1.98;;;15.60;99.90;;;14.27;96.35;99575.34;2567912;30;137372;-40
2021/10/02 20:25:21;;;;;;;3.05;1.88;;;15.60;99.90;;;14.28;96.42;99576.97;2569142;30;137415;-40
2021/10/02 20:27:49;;;;;;;5.30;2.40;;;15.60;99.90;;;14.29;97.27;99580.53;2567208;30;136899;-40
2021/10/02 20:30:16;;;;;;;3.75;2.33;;;15.60;99.90;;;14.29;96.46;99564.91;2569564;30;138417;-40
